Gaardsjoe, Sweden

1:33 AM CEST on July 29, 2015 (GMT +0200)
Naturbruksgymnasiet Sotasen | | Change Station
CLOSE
Current Station
Personal Weather Station
Location: T�reboda, V�STRA G�TALANDS L�N
Elevation: 318 ft
Nearby Weather Stations

Elev 318 ft 58.68 °N, 14.13 °E | Updated 6 minutes ago

Mostly Cloudy
Mostly Cloudy
57.5 °F
Feels Like 57.5 °F
N
1.0
Wind Variable Wind from East
Gusts 7.0 mph

Today
High -- | Low -- °F
--% Chance of Precip.
Yesterday
High -- | Low -- °F
Precip. -- in
4:42 AM 9:33 PM
Waxing Gibbous, 92% visible
Pressure 29.44 in
Visibility 6.2 miles
Clouds Few 900 ft
Scattered Clouds 1100 ft
Mostly Cloudy 1800 ft
Dew Point 56 °F
Humidity 95%
Rainfall 0.02 in
Snow Depth Not available.
UV 0.0 out of 12
Pollen Not available.
Air Quality Not available.
Flu Activity Not available.
METAR ESGR 282320Z AUTO 10005KT 070V130 9999 FEW009/// SCT011/// BKN018/// 15/14 Q0997

More Conditions Fewer Conditions

Pressure 29.44 in
Visibility 6.2 miles
Clouds Few 900 ft
Scattered Clouds 1100 ft
Mostly Cloudy 1800 ft
Dew Point 56 °F
Humidity 95%
Rainfall 0.02 in
Snow Depth Not available.
UV 0.0 out of 12
Pollen Not available.
Air Quality Not available.
Flu Activity Not available.
METAR ESGR 282320Z AUTO 10005KT 070V130 9999 FEW009/// SCT011/// BKN018/// 15/14 Q0997

More Conditions Fewer Conditions

10-Day Weather Forecast

×

Almanac

Astronomy

Jul. 29, 2015 Rise Set
Actual Time
Civil Twilight
Nautical Twilight
Astronomical Twilight
Moon
Length of Visible Light
Length of Day
Tomorrow will be .
, % of the Moon is Illuminated

Today's Extremes

Country Highs Country Lows

Community

WunderPhotos

Upload Photos

1,841,966 photos uploaded!

WunderBlogs® & News

Nearby

Air Quality

  Air Quality AQ Index Pollutant
Not available.

Snow Depth

Station Depth Elevation

Earthquake Activity

City Distance Mag. Time & Date
Minimum magnitude displayed is 2.5.

Coastal Water Temperatures

Place Temperature

Stations

Nearby Weather Stations

Station Location Temp. Windchill Dew Point Humidity Wind Precip. Elev Updated Type